createdAt,value
2023-11-15T00:01:17.042Z,5.72
2023-11-15T00:03:44.975Z,6.80
2023-11-15T00:06:13.771Z,5.72
2023-11-15T00:08:41.776Z,6.20
2023-11-15T00:11:09.708Z,8.05
2023-11-15T00:13:37.291Z,7.32
2023-11-15T00:16:05.866Z,7.43
2023-11-15T00:18:33.621Z,6.53
2023-11-15T00:21:01.512Z,6.57
2023-11-15T00:23:29.160Z,5.90
2023-11-15T00:25:56.829Z,7.10
2023-11-15T00:28:24.401Z,6.50
2023-11-15T00:30:52.065Z,6.82
2023-11-15T00:33:20.246Z,7.43
2023-11-15T00:35:48.106Z,6.03
2023-11-15T00:38:16.267Z,6.35
2023-11-15T00:40:44.196Z,6.13
2023-11-15T00:43:12.393Z,6.50
2023-11-15T00:45:40.197Z,6.13
2023-11-15T00:48:07.973Z,5.90
2023-11-15T00:50:35.780Z,6.63
2023-11-15T00:53:04.981Z,5.25
2023-11-15T00:55:32.872Z,6.25
2023-11-15T00:58:01.487Z,6.57
2023-11-15T01:00:33.889Z,6.30
2023-11-15T01:03:02.888Z,5.95
2023-11-15T01:05:30.878Z,5.55
2023-11-15T01:07:59.330Z,6.03
2023-11-15T01:10:26.962Z,5.93
2023-11-15T01:12:55.755Z,6.40
2023-11-15T01:15:23.580Z,6.22
2023-11-15T01:17:51.964Z,6.10
2023-11-15T01:20:19.944Z,6.63
2023-11-15T01:22:48.147Z,5.60
2023-11-15T01:25:15.939Z,6.90
2023-11-15T01:27:44.117Z,6.72
2023-11-15T01:30:11.865Z,6.38
2023-11-15T01:32:39.460Z,5.88
2023-11-15T01:35:07.255Z,5.90
2023-11-15T01:37:34.818Z,5.45
2023-11-15T01:40:03.187Z,7.40
2023-11-15T01:42:31.063Z,6.55
2023-11-15T01:44:58.851Z,5.63
2023-11-15T01:47:26.665Z,6.28
2023-11-15T01:49:54.843Z,5.28
2023-11-15T01:52:22.405Z,5.13
2023-11-15T01:54:52.077Z,6.47
2023-11-15T01:57:20.114Z,6.00
2023-11-15T01:59:47.829Z,5.35
2023-11-15T02:02:16.255Z,4.60
2023-11-15T02:04:43.831Z,4.22
2023-11-15T02:07:11.429Z,4.70
2023-11-15T02:09:39.552Z,5.32
2023-11-15T02:12:07.765Z,6.38
2023-11-15T02:14:35.643Z,5.47
2023-11-15T02:17:03.284Z,4.88
2023-11-15T02:19:31.198Z,5.57
2023-11-15T02:21:59.100Z,4.75
2023-11-15T02:24:26.791Z,4.72
2023-11-15T02:26:54.331Z,4.70
2023-11-15T02:29:21.982Z,4.10
2023-11-15T02:31:49.751Z,3.85
2023-11-15T02:34:17.441Z,4.82
2023-11-15T02:36:45.170Z,5.25
2023-11-15T02:39:12.878Z,4.28
2023-11-15T02:41:40.572Z,4.55
2023-11-15T02:44:10.489Z,4.10
2023-11-15T02:46:38.552Z,4.22
2023-11-15T02:49:06.279Z,4.28
2023-11-15T02:51:34.110Z,5.63
2023-11-15T02:54:03.997Z,5.28
2023-11-15T02:56:31.964Z,4.45
2023-11-15T02:59:00.047Z,4.03
2023-11-15T03:01:30.660Z,4.93
2023-11-15T03:06:26.201Z,3.70
2023-11-15T03:08:54.214Z,4.13
2023-11-15T03:11:21.968Z,3.92
2023-11-15T03:13:50.017Z,4.25
2023-11-15T03:16:17.771Z,3.75
2023-11-15T03:18:45.533Z,4.45
2023-11-15T03:21:13.189Z,4.07
2023-11-15T03:23:40.831Z,4.00
2023-11-15T03:26:08.406Z,3.58
2023-11-15T03:28:36.063Z,3.83
2023-11-15T03:31:03.696Z,4.05
2023-11-15T03:33:31.681Z,4.20
2023-11-15T03:35:59.689Z,3.65
2023-11-15T03:38:27.674Z,4.32
2023-11-15T03:40:55.774Z,3.90
2023-11-15T03:43:23.735Z,2.95
2023-11-15T03:45:51.601Z,2.50
2023-11-15T03:48:19.560Z,2.42
2023-11-15T03:50:47.544Z,3.60
2023-11-15T03:53:15.412Z,4.43
2023-11-15T03:55:47.686Z,3.72
2023-11-15T03:58:15.772Z,3.60
2023-11-15T04:00:43.492Z,4.45
2023-11-15T04:03:11.341Z,3.75
2023-11-15T04:05:39.216Z,4.22
2023-11-15T04:08:07.024Z,3.83
2023-11-15T04:10:34.682Z,4.32
2023-11-15T04:13:02.259Z,3.97
2023-11-15T04:15:30.052Z,4.68
2023-11-15T04:17:57.813Z,3.95
2023-11-15T04:20:25.680Z,3.45
2023-11-15T04:22:53.464Z,3.85
2023-11-15T04:25:21.033Z,4.30
2023-11-15T04:27:48.514Z,3.63
2023-11-15T04:30:17.428Z,4.40
2023-11-15T04:32:46.789Z,4.00
2023-11-15T04:35:14.374Z,4.28
2023-11-15T04:37:41.998Z,4.25
2023-11-15T04:40:10.600Z,4.28
2023-11-15T04:42:38.657Z,3.08
2023-11-15T04:45:06.569Z,4.82
2023-11-15T04:47:34.188Z,4.18
2023-11-15T04:50:01.716Z,3.65
2023-11-15T04:52:29.244Z,5.28
2023-11-15T04:54:57.000Z,3.47
2023-11-15T04:57:27.039Z,4.90
2023-11-15T04:59:57.093Z,5.70
2023-11-15T05:02:25.059Z,3.67
2023-11-15T05:04:53.698Z,4.00
2023-11-15T05:07:24.023Z,3.72
2023-11-15T05:09:51.770Z,5.07
2023-11-15T05:12:19.313Z,4.00
2023-11-15T05:14:46.934Z,4.35
2023-11-15T05:17:15.294Z,4.38
2023-11-15T05:19:42.811Z,4.57
2023-11-15T05:22:10.347Z,4.18
2023-11-15T05:24:38.136Z,5.55
2023-11-15T05:27:05.754Z,5.40
2023-11-15T05:29:33.673Z,4.13
2023-11-15T05:32:01.480Z,4.93
2023-11-15T05:34:29.740Z,4.55
2023-11-15T05:36:57.256Z,4.28
2023-11-15T05:39:24.760Z,6.32
2023-11-15T05:41:53.135Z,5.40
2023-11-15T05:44:21.260Z,4.78
2023-11-15T05:46:48.919Z,4.65
2023-11-15T05:49:17.189Z,4.43
2023-11-15T05:51:47.747Z,4.82
2023-11-15T05:54:15.880Z,5.00
2023-11-15T05:56:45.891Z,4.30
2023-11-15T05:59:13.519Z,5.50
2023-11-15T06:01:41.441Z,4.95
2023-11-15T06:04:09.605Z,5.22
2023-11-15T06:06:37.326Z,5.18
2023-11-15T06:09:05.760Z,5.10
2023-11-15T06:11:34.054Z,6.20
2023-11-15T06:14:01.611Z,5.55
2023-11-15T06:16:29.144Z,5.30
2023-11-15T06:18:57.296Z,5.68
2023-11-15T06:21:24.726Z,6.85
2023-11-15T06:23:52.912Z,6.40
2023-11-15T06:26:21.074Z,8.43
2023-11-15T06:28:50.418Z,7.28
2023-11-15T06:31:18.160Z,8.52
2023-11-15T06:33:45.962Z,8.23
2023-11-15T06:36:14.081Z,9.07
2023-11-15T06:38:41.641Z,9.00
2023-11-15T06:41:11.061Z,8.00
2023-11-15T06:43:38.614Z,9.80
2023-11-15T06:46:06.662Z,9.98
2023-11-15T06:48:35.504Z,9.70
2023-11-15T06:51:03.455Z,9.85
2023-11-15T06:53:31.139Z,11.77
2023-11-15T06:56:00.213Z,10.05
2023-11-15T06:58:28.377Z,10.43
2023-11-15T07:00:56.543Z,10.02
2023-11-15T07:03:24.143Z,9.98
2023-11-15T07:05:51.838Z,8.95
2023-11-15T07:08:22.191Z,8.88
2023-11-15T07:10:49.774Z,9.13
2023-11-15T07:13:18.251Z,8.50
2023-11-15T07:15:47.130Z,8.68
2023-11-15T07:18:15.202Z,9.00
2023-11-15T07:20:43.159Z,8.57
2023-11-15T07:23:10.918Z,8.18
2023-11-15T07:25:38.907Z,9.68
2023-11-15T07:28:09.454Z,8.75
2023-11-15T07:33:05.335Z,7.47
2023-11-15T07:35:37.382Z,7.78
2023-11-15T07:38:05.542Z,7.72
2023-11-15T07:40:34.217Z,7.80
2023-11-15T07:43:02.156Z,7.00
2023-11-15T07:45:30.880Z,8.55
2023-11-15T07:47:59.696Z,7.05
2023-11-15T07:50:29.411Z,6.47
2023-11-15T07:52:57.667Z,5.70
2023-11-15T07:55:25.530Z,6.43
2023-11-15T07:57:53.281Z,7.07
2023-11-15T08:00:24.324Z,6.25
2023-11-15T08:02:53.379Z,5.97
2023-11-15T08:05:21.775Z,6.45
2023-11-15T08:07:49.901Z,6.28
2023-11-15T08:10:17.962Z,5.53
2023-11-15T08:12:46.212Z,5.88
2023-11-15T08:15:16.347Z,4.38
2023-11-15T08:17:47.754Z,5.47
2023-11-15T08:20:18.681Z,5.00
2023-11-15T08:22:46.418Z,3.92
2023-11-15T08:25:14.437Z,5.25
2023-11-15T08:27:43.516Z,5.63
2023-11-15T08:30:18.981Z,4.32
2023-11-15T08:32:47.660Z,4.68
2023-11-15T08:35:18.745Z,3.50
2023-11-15T08:37:46.340Z,3.58
2023-11-15T08:40:23.225Z,3.30
2023-11-15T08:42:56.787Z,3.72
2023-11-15T08:45:25.251Z,3.67
2023-11-15T08:47:54.001Z,3.60
2023-11-15T08:50:23.511Z,4.00
2023-11-15T08:52:51.301Z,4.47
2023-11-15T08:55:19.809Z,4.53
2023-11-15T08:57:47.732Z,5.00
2023-11-15T09:00:17.533Z,5.75
2023-11-15T09:02:47.620Z,6.97
2023-11-15T09:05:17.254Z,5.88
2023-11-15T09:07:45.730Z,6.18
2023-11-15T09:10:15.224Z,5.45
2023-11-15T09:12:46.271Z,6.05
2023-11-15T09:15:14.339Z,6.63
2023-11-15T09:17:49.210Z,6.40
2023-11-15T09:20:22.831Z,6.35
2023-11-15T09:22:51.025Z,6.18
2023-11-15T09:25:31.790Z,6.05
2023-11-15T09:28:01.602Z,6.13
2023-11-15T09:30:32.416Z,4.88
2023-11-15T09:33:01.256Z,4.95
2023-11-15T09:35:32.717Z,4.90
2023-11-15T09:38:00.499Z,5.75
2023-11-15T09:40:28.728Z,5.40
2023-11-15T09:43:03.753Z,5.55
2023-11-15T09:45:34.032Z,4.90
2023-11-15T09:48:03.820Z,4.72
2023-11-15T09:50:35.045Z,3.67
2023-11-15T09:53:09.448Z,4.38
2023-11-15T09:55:37.678Z,4.35
2023-11-15T09:58:05.393Z,4.38
2023-11-15T10:00:33.810Z,4.45
2023-11-15T10:03:02.474Z,5.13
2023-11-15T10:05:30.428Z,4.97
2023-11-15T10:08:12.713Z,3.55
2023-11-15T10:10:43.110Z,3.83
2023-11-15T10:13:13.821Z,3.65
2023-11-15T10:15:41.797Z,3.45
2023-11-15T10:18:09.741Z,3.40
2023-11-15T10:20:37.513Z,3.53
2023-11-15T10:23:05.174Z,3.80
2023-11-15T10:25:33.117Z,3.00
2023-11-15T10:28:11.939Z,3.28
2023-11-15T10:30:41.650Z,2.60
2023-11-15T10:33:15.325Z,2.80
2023-11-15T10:35:44.761Z,2.60
2023-11-15T10:38:24.372Z,3.00
2023-11-15T10:40:53.946Z,2.93
2023-11-15T10:43:21.829Z,3.40
2023-11-15T10:45:52.264Z,3.38
2023-11-15T10:50:59.365Z,3.85
2023-11-15T10:53:28.340Z,3.35
2023-11-15T10:55:57.853Z,3.40
2023-11-15T10:58:25.606Z,2.92
2023-11-15T11:00:55.796Z,2.45
2023-11-15T11:03:26.041Z,3.08
2023-11-15T11:08:26.865Z,2.55
2023-11-15T11:11:10.941Z,4.05
2023-11-15T11:13:42.059Z,2.20
2023-11-15T11:16:35.048Z,2.90
2023-11-15T11:19:15.105Z,2.85
2023-11-15T11:22:07.907Z,2.30
2023-11-15T11:24:37.461Z,2.92
2023-11-15T11:27:15.485Z,2.30
2023-11-15T11:30:09.058Z,2.58
2023-11-15T11:32:37.219Z,2.83
2023-11-15T11:35:06.388Z,2.95
2023-11-15T11:37:46.299Z,2.60
2023-11-15T11:40:14.920Z,2.75
2023-11-15T11:42:45.429Z,3.55
2023-11-15T11:45:14.220Z,2.88
2023-11-15T11:47:43.014Z,3.67
2023-11-15T11:50:10.905Z,3.08
2023-11-15T11:52:40.922Z,3.10
2023-11-15T11:55:09.488Z,2.97
2023-11-15T11:57:37.284Z,2.80
2023-11-15T12:00:13.585Z,2.83
2023-11-15T12:02:44.811Z,2.58
2023-11-15T12:05:17.433Z,2.45
2023-11-15T12:07:45.751Z,3.42
2023-11-15T12:10:15.043Z,2.80
2023-11-15T12:12:43.440Z,1.85
2023-11-15T12:15:14.562Z,3.08
2023-11-15T12:17:43.204Z,2.70
2023-11-15T12:20:14.723Z,2.38
2023-11-15T12:22:43.878Z,2.58
2023-11-15T12:25:14.916Z,2.63
2023-11-15T12:27:43.701Z,2.22
2023-11-15T12:30:12.380Z,2.13
2023-11-15T12:32:44.473Z,2.70
2023-11-15T12:35:12.770Z,2.63
2023-11-15T12:37:40.814Z,2.50
2023-11-15T12:40:20.767Z,2.20
2023-11-15T12:42:56.531Z,2.05
2023-11-15T12:45:30.629Z,1.63
2023-11-15T12:48:16.595Z,1.67
2023-11-15T12:50:47.307Z,1.67
2023-11-15T12:53:16.366Z,1.35
2023-11-15T12:55:56.702Z,1.10
2023-11-15T12:58:24.369Z,2.03
2023-11-15T13:01:08.590Z,1.40
2023-11-15T13:03:38.088Z,1.27
2023-11-15T13:06:12.112Z,1.10
2023-11-15T13:08:40.539Z,1.50
2023-11-15T13:11:08.605Z,1.80
2023-11-15T13:13:38.304Z,1.20
2023-11-15T13:16:06.115Z,1.98
2023-11-15T13:18:33.963Z,1.33
2023-11-15T13:21:01.959Z,1.30
2023-11-15T13:23:30.381Z,1.17
2023-11-15T13:26:00.660Z,1.35
2023-11-15T13:28:30.535Z,1.30
2023-11-15T13:30:58.258Z,1.30
2023-11-15T13:33:27.794Z,1.40
2023-11-15T13:35:55.496Z,1.38
2023-11-15T13:38:22.989Z,1.25
2023-11-15T13:40:50.762Z,1.50
2023-11-15T13:43:18.463Z,1.70
2023-11-15T13:45:46.925Z,1.63
2023-11-15T13:48:17.776Z,1.58
2023-11-15T13:50:46.147Z,1.77
2023-11-15T13:53:14.878Z,1.38
2023-11-15T13:55:42.585Z,1.55
2023-11-15T13:58:10.642Z,1.20
2023-11-15T14:00:39.083Z,1.58
2023-11-15T14:03:08.335Z,1.70
2023-11-15T14:05:36.354Z,1.80
2023-11-15T14:08:05.107Z,1.83
2023-11-15T14:10:33.016Z,1.83
2023-11-15T14:13:02.501Z,2.33
2023-11-15T14:15:30.766Z,1.92
2023-11-15T14:17:58.363Z,1.83
2023-11-15T14:20:26.429Z,2.83
2023-11-15T14:22:56.270Z,1.70
2023-11-15T14:25:24.967Z,1.90
2023-11-15T14:27:56.128Z,2.28
2023-11-15T14:30:25.925Z,1.73
2023-11-15T14:32:54.000Z,3.25
2023-11-15T14:35:22.487Z,2.08
2023-11-15T14:37:51.253Z,2.00
2023-11-15T14:40:23.239Z,2.13
2023-11-15T14:42:52.358Z,2.03
2023-11-15T14:45:21.178Z,3.15
2023-11-15T14:47:49.674Z,2.17
2023-11-15T14:50:18.220Z,2.25
2023-11-15T14:53:05.441Z,1.83
2023-11-15T14:55:33.220Z,2.42
2023-11-15T14:58:01.134Z,2.70
2023-11-15T15:00:30.646Z,2.45
2023-11-15T15:03:03.104Z,2.80
2023-11-15T15:05:30.826Z,2.40
2023-11-15T15:07:58.584Z,2.70
2023-11-15T15:10:27.421Z,2.47
2023-11-15T15:12:55.516Z,2.67
2023-11-15T15:15:23.489Z,2.70
2023-11-15T15:17:51.757Z,3.08
2023-11-15T15:20:24.721Z,2.20
2023-11-15T15:22:53.068Z,2.80
2023-11-15T15:25:21.218Z,2.55
2023-11-15T15:27:49.108Z,1.45
2023-11-15T15:30:18.254Z,2.13
2023-11-15T15:32:47.115Z,2.67
2023-11-15T15:35:15.707Z,3.30
2023-11-15T15:37:47.412Z,2.40
2023-11-15T15:40:17.740Z,2.60
2023-11-15T15:42:45.801Z,1.92
2023-11-15T15:45:16.612Z,2.20
2023-11-15T15:47:44.782Z,1.90
2023-11-15T15:50:16.106Z,2.22
2023-11-15T15:52:44.942Z,2.72
2023-11-15T15:55:13.786Z,2.67
2023-11-15T15:57:42.629Z,5.38
2023-11-15T16:00:11.528Z,9.13
2023-11-15T16:02:39.401Z,2.35
2023-11-15T16:05:07.678Z,3.28
2023-11-15T16:07:35.476Z,2.38
2023-11-15T16:10:05.464Z,2.72
2023-11-15T16:12:33.804Z,3.38
2023-11-15T16:15:01.706Z,2.75
2023-11-15T16:17:35.671Z,2.72
2023-11-15T16:20:04.852Z,2.83
2023-11-15T16:22:32.727Z,3.35
2023-11-15T16:25:00.481Z,3.55
2023-11-15T16:27:37.575Z,2.95
2023-11-15T16:30:08.032Z,4.10
2023-11-15T16:35:10.313Z,2.65
2023-11-15T16:37:42.949Z,2.80
2023-11-15T16:40:12.111Z,2.92
2023-11-15T16:42:41.227Z,2.90
2023-11-15T16:45:10.184Z,2.70
2023-11-15T16:47:40.392Z,2.47
2023-11-15T16:50:10.618Z,3.42
2023-11-15T16:52:38.782Z,3.50
2023-11-15T16:55:06.987Z,2.78
2023-11-15T16:57:34.865Z,2.58
2023-11-15T17:00:02.489Z,3.20
2023-11-15T17:02:30.752Z,3.03
2023-11-15T17:04:58.511Z,2.80
2023-11-15T17:07:26.628Z,2.85
2023-11-15T17:09:55.200Z,3.10
2023-11-15T17:12:24.656Z,2.30
2023-11-15T17:14:52.897Z,2.13
2023-11-15T17:17:20.395Z,3.40
2023-11-15T17:19:47.927Z,3.22
2023-11-15T17:22:15.563Z,2.83
2023-11-15T17:24:44.323Z,2.92
2023-11-15T17:27:12.068Z,2.75
2023-11-15T17:29:40.767Z,3.25
2023-11-15T17:32:10.251Z,2.97
2023-11-15T17:34:43.533Z,2.70
2023-11-15T17:37:13.340Z,2.75
2023-11-15T17:39:41.419Z,2.75
2023-11-15T17:42:09.395Z,2.42
2023-11-15T17:44:37.132Z,1.92
2023-11-15T17:47:05.075Z,2.25
2023-11-15T17:49:32.732Z,2.47
2023-11-15T17:52:01.805Z,2.88
2023-11-15T17:54:32.548Z,2.28
2023-11-15T17:57:00.352Z,3.28
2023-11-15T17:59:28.107Z,2.65
2023-11-15T18:01:58.376Z,2.40
2023-11-15T18:06:55.501Z,2.47
2023-11-15T18:09:23.779Z,2.38
2023-11-15T18:11:51.664Z,2.30
2023-11-15T18:14:19.417Z,2.25
2023-11-15T18:16:47.667Z,2.97
2023-11-15T18:19:21.965Z,2.70
2023-11-15T18:21:49.648Z,2.92
2023-11-15T18:24:17.677Z,2.97
2023-11-15T18:26:46.547Z,2.03
2023-11-15T18:29:14.639Z,3.10
2023-11-15T18:31:42.724Z,2.65
2023-11-15T18:34:10.996Z,2.55
2023-11-15T18:36:42.507Z,2.70
2023-11-15T18:39:15.773Z,2.85
2023-11-15T18:41:45.734Z,2.50
2023-11-15T18:44:17.569Z,2.50
2023-11-15T18:46:49.802Z,2.67
2023-11-15T18:49:19.303Z,2.88
2023-11-15T18:51:49.587Z,2.43
2023-11-15T18:54:17.628Z,2.53
2023-11-15T18:56:45.611Z,3.60
2023-11-15T18:59:13.304Z,2.78
2023-11-15T19:01:45.370Z,2.80
2023-11-15T19:04:13.513Z,2.42
2023-11-15T19:06:41.469Z,2.42
2023-11-15T19:09:12.622Z,2.67
2023-11-15T19:11:40.748Z,2.45
2023-11-15T19:14:09.736Z,3.22
2023-11-15T19:16:39.932Z,3.10
2023-11-15T19:19:10.013Z,3.22
2023-11-15T19:21:38.255Z,2.72
2023-11-15T19:24:07.446Z,3.22
2023-11-15T19:26:35.133Z,2.90
2023-11-15T19:29:02.849Z,2.38
2023-11-15T19:31:30.494Z,3.03
2023-11-15T19:33:58.097Z,2.70
2023-11-15T19:36:25.930Z,2.72
2023-11-15T19:38:53.976Z,2.40
2023-11-15T19:41:21.983Z,3.03
2023-11-15T19:43:50.090Z,3.10
2023-11-15T19:46:19.011Z,2.70
2023-11-15T19:48:47.809Z,3.80
2023-11-15T19:51:36.898Z,3.33
2023-11-15T19:54:08.887Z,2.60
2023-11-15T19:56:37.057Z,3.00
2023-11-15T19:59:05.184Z,3.75
2023-11-15T20:01:32.943Z,2.53
2023-11-15T20:04:04.341Z,2.50
2023-11-15T20:06:32.453Z,2.70
2023-11-15T20:09:00.278Z,2.78
2023-11-15T20:11:28.107Z,3.33
2023-11-15T20:13:55.684Z,2.80
2023-11-15T20:16:24.630Z,4.00
2023-11-15T20:18:52.635Z,2.60
2023-11-15T20:21:21.076Z,2.70
2023-11-15T20:23:48.890Z,2.45
2023-11-15T20:26:16.719Z,2.95
2023-11-15T20:28:45.219Z,2.78
2023-11-15T20:31:13.506Z,2.60
2023-11-15T20:33:42.687Z,3.13
2023-11-15T20:36:11.723Z,3.03
2023-11-15T20:38:39.761Z,3.13
2023-11-15T20:41:08.797Z,3.33
2023-11-15T20:43:37.293Z,2.85
2023-11-15T20:46:17.436Z,3.15
2023-11-15T20:48:47.793Z,2.65
2023-11-15T20:51:15.980Z,2.85
2023-11-15T20:53:45.083Z,2.30
2023-11-15T20:56:12.816Z,2.03
2023-11-15T20:58:41.616Z,2.85
2023-11-15T21:01:10.282Z,3.15
2023-11-15T21:03:38.598Z,2.60
2023-11-15T21:06:06.930Z,2.75
2023-11-15T21:08:36.488Z,2.90
2023-11-15T21:11:06.264Z,3.20
2023-11-15T21:13:34.302Z,3.10
2023-11-15T21:16:04.445Z,2.85
2023-11-15T21:18:32.424Z,3.15
2023-11-15T21:21:00.295Z,2.35
2023-11-15T21:23:28.694Z,3.10
2023-11-15T21:25:56.737Z,2.88
2023-11-15T21:28:24.473Z,2.88
2023-11-15T21:30:53.009Z,2.97
2023-11-15T21:33:21.630Z,3.03
2023-11-15T21:35:51.701Z,2.92
2023-11-15T21:38:20.656Z,3.17
2023-11-15T21:40:48.643Z,3.33
2023-11-15T21:43:16.383Z,3.63
2023-11-15T21:45:44.011Z,3.95
2023-11-15T21:48:11.756Z,3.03
2023-11-15T21:50:39.317Z,3.55
2023-11-15T21:53:08.018Z,3.42
2023-11-15T21:55:35.660Z,4.10
2023-11-15T21:58:08.146Z,3.60
2023-11-15T22:00:35.822Z,3.42
2023-11-15T22:03:03.601Z,3.65
2023-11-15T22:05:31.571Z,3.95
2023-11-15T22:07:59.608Z,3.85
2023-11-15T22:10:27.710Z,3.17
2023-11-15T22:12:55.437Z,3.13
2023-11-15T22:15:24.513Z,3.70
2023-11-15T22:17:52.224Z,3.47
2023-11-15T22:20:20.316Z,3.33
2023-11-15T22:22:47.933Z,3.30
2023-11-15T22:25:15.968Z,3.72
2023-11-15T22:27:43.576Z,4.20
2023-11-15T22:30:11.682Z,3.63
2023-11-15T22:32:39.577Z,4.00
2023-11-15T22:35:08.348Z,3.88
2023-11-15T22:37:36.161Z,3.97
2023-11-15T22:40:03.898Z,3.90
2023-11-15T22:42:31.537Z,3.85
2023-11-15T22:44:59.348Z,3.95
2023-11-15T22:47:27.003Z,4.03
2023-11-15T22:49:54.843Z,3.75
2023-11-15T22:52:22.407Z,4.43
2023-11-15T22:54:50.144Z,4.43
2023-11-15T22:57:18.020Z,4.18
2023-11-15T22:59:46.633Z,3.67
2023-11-15T23:02:15.472Z,3.70
2023-11-15T23:04:44.413Z,4.40
2023-11-15T23:07:12.325Z,3.67
2023-11-15T23:09:39.951Z,4.97
2023-11-15T23:12:08.067Z,4.35
2023-11-15T23:14:35.793Z,4.38
2023-11-15T23:17:04.210Z,4.53
2023-11-15T23:19:32.005Z,4.38
2023-11-15T23:22:04.228Z,4.25
2023-11-15T23:24:32.522Z,4.15
2023-11-15T23:27:01.019Z,4.72
2023-11-15T23:29:29.506Z,3.42
2023-11-15T23:31:57.849Z,4.00
2023-11-15T23:34:25.699Z,3.63
2023-11-15T23:36:53.491Z,3.88
2023-11-15T23:39:24.297Z,4.00
2023-11-15T23:41:52.003Z,3.90
2023-11-15T23:44:19.847Z,4.15
2023-11-15T23:46:51.000Z,4.50
2023-11-15T23:49:20.206Z,3.25
2023-11-15T23:51:48.048Z,3.92
2023-11-15T23:54:15.617Z,3.65
2023-11-15T23:56:43.788Z,3.53
2023-11-15T23:59:11.493Z,3.47
